createdAt,value
2022-09-22T00:02:14.147Z,13.03
2022-09-22T00:07:15.923Z,12.92
2022-09-22T00:12:17.705Z,12.85
2022-09-22T00:17:19.456Z,12.90
2022-09-22T00:22:21.210Z,12.97
2022-09-22T00:27:24.291Z,13.01
2022-09-22T00:32:26.139Z,13.01
2022-09-22T00:37:28.241Z,13.00
2022-09-22T00:42:30.016Z,12.96
2022-09-22T00:47:39.724Z,12.91
2022-09-22T00:52:52.472Z,12.84
2022-09-22T00:57:55.801Z,12.81
2022-09-22T01:03:00.837Z,12.81
2022-09-22T01:08:03.380Z,12.76
2022-09-22T01:13:42.766Z,12.75
2022-09-22T01:18:56.958Z,12.81
2022-09-22T01:24:40.116Z,12.85
2022-09-22T01:29:56.331Z,12.89
2022-09-22T01:35:03.879Z,12.78
2022-09-22T01:40:12.904Z,12.39
2022-09-22T01:45:20.576Z,12.57
2022-09-22T01:50:27.445Z,12.60
2022-09-22T01:55:34.967Z,12.56
2022-09-22T02:00:40.509Z,12.48
2022-09-22T02:05:56.523Z,12.38
2022-09-22T02:11:04.346Z,12.37
2022-09-22T02:16:07.825Z,12.27
2022-09-22T02:21:10.994Z,12.23
2022-09-22T02:26:18.426Z,12.17
2022-09-22T02:31:23.670Z,12.24
2022-09-22T02:36:32.851Z,12.19
2022-09-22T02:42:05.687Z,12.19
2022-09-22T02:47:15.412Z,12.23
2022-09-22T02:52:19.834Z,12.17
2022-09-22T02:57:22.021Z,12.21
2022-09-22T03:02:23.914Z,12.20
2022-09-22T03:07:25.790Z,12.21
2022-09-22T03:12:27.640Z,12.21
2022-09-22T03:17:32.191Z,12.21
2022-09-22T03:22:34.198Z,12.16
2022-09-22T03:27:36.543Z,12.11
2022-09-22T03:32:38.888Z,12.07
2022-09-22T03:37:40.888Z,11.96
2022-09-22T03:42:42.749Z,11.85
2022-09-22T03:47:44.719Z,11.82
2022-09-22T03:52:46.642Z,11.85
2022-09-22T03:57:48.609Z,11.87
2022-09-22T04:02:50.471Z,11.64
2022-09-22T04:07:53.096Z,11.36
2022-09-22T04:12:54.943Z,11.27
2022-09-22T04:17:57.547Z,11.27
2022-09-22T04:22:59.526Z,11.30
2022-09-22T04:28:05.401Z,11.38
2022-09-22T04:33:07.563Z,11.43
2022-09-22T04:38:10.696Z,11.49
2022-09-22T04:43:12.806Z,11.42
2022-09-22T04:48:17.504Z,11.32
2022-09-22T04:53:19.645Z,11.39
2022-09-22T04:58:21.417Z,11.41
2022-09-22T05:03:23.248Z,11.23
2022-09-22T05:08:25.300Z,11.05
2022-09-22T05:13:27.130Z,11.02
2022-09-22T05:18:28.940Z,11.15
2022-09-22T05:23:32.184Z,11.32
2022-09-22T05:28:34.061Z,11.42
2022-09-22T05:33:35.931Z,11.38
2022-09-22T05:38:37.728Z,11.46
2022-09-22T05:43:39.571Z,11.52
2022-09-22T05:48:41.387Z,11.61
2022-09-22T05:53:43.272Z,11.75
2022-09-22T05:58:47.301Z,11.96
2022-09-22T06:03:49.097Z,12.18
2022-09-22T06:08:51.152Z,12.50
2022-09-22T06:13:53.247Z,12.64
2022-09-22T06:18:55.083Z,12.78
2022-09-22T06:23:57.828Z,12.90
2022-09-22T06:28:59.732Z,13.11
2022-09-22T06:34:04.324Z,13.26
2022-09-22T06:39:10.641Z,13.42
2022-09-22T06:44:12.780Z,13.68
2022-09-22T06:49:14.697Z,14.01
2022-09-22T06:54:16.674Z,14.26
2022-09-22T06:59:18.564Z,14.50
2022-09-22T07:04:22.491Z,14.78
2022-09-22T07:09:24.465Z,15.17
2022-09-22T07:14:26.717Z,15.48
2022-09-22T07:19:28.528Z,15.53
2022-09-22T07:24:30.312Z,15.57
2022-09-22T07:29:32.292Z,15.69
2022-09-22T07:34:34.125Z,15.76
2022-09-22T07:39:35.981Z,15.97
2022-09-22T07:44:56.486Z,16.42
2022-09-22T07:49:58.285Z,16.77
2022-09-22T07:55:00.110Z,16.87
2022-09-22T08:00:02.349Z,16.97
2022-09-22T08:05:15.456Z,17.43
2022-09-22T08:10:18.644Z,17.92
2022-09-22T08:15:26.964Z,18.32
2022-09-22T08:20:30.102Z,18.35
2022-09-22T08:25:31.939Z,18.31
2022-09-22T08:30:35.330Z,18.27
2022-09-22T08:35:37.511Z,18.09
2022-09-22T08:40:43.422Z,18.03
2022-09-22T08:45:46.316Z,18.15
2022-09-22T08:51:23.841Z,18.43
2022-09-22T08:56:33.525Z,18.59
2022-09-22T09:02:02.462Z,18.62
2022-09-22T09:07:29.301Z,18.45
2022-09-22T09:12:49.811Z,18.28
2022-09-22T09:17:56.709Z,18.12
2022-09-22T09:23:00.077Z,18.15
2022-09-22T09:28:07.202Z,18.19
2022-09-22T09:33:24.070Z,18.31
2022-09-22T09:38:35.534Z,18.37
2022-09-22T09:43:42.847Z,18.46
2022-09-22T09:49:19.301Z,18.49
2022-09-22T09:54:21.735Z,18.60
2022-09-22T09:59:46.401Z,18.76
2022-09-22T10:05:17.299Z,19.08
2022-09-22T10:10:39.153Z,19.28
2022-09-22T10:15:43.511Z,19.36
2022-09-22T10:20:45.404Z,19.47
2022-09-22T10:25:48.415Z,19.63
2022-09-22T10:31:03.698Z,19.84
2022-09-22T10:36:12.170Z,19.91
2022-09-22T10:41:24.261Z,20.04
2022-09-22T10:46:38.751Z,20.27
2022-09-22T10:52:00.931Z,20.26
2022-09-22T10:57:10.301Z,20.47
2022-09-22T11:02:50.450Z,20.79
2022-09-22T11:08:25.749Z,20.84
2022-09-22T11:13:57.584Z,20.97
2022-09-22T11:19:27.284Z,20.94
2022-09-22T11:24:51.284Z,20.64
2022-09-22T11:30:11.314Z,20.29
2022-09-22T11:35:16.730Z,20.25
2022-09-22T11:40:39.942Z,20.12
2022-09-22T11:45:41.915Z,19.90
2022-09-22T11:51:26.709Z,19.73
2022-09-22T11:56:49.413Z,19.68
2022-09-22T12:01:53.645Z,19.40
2022-09-22T12:06:58.116Z,19.45
2022-09-22T12:12:03.195Z,19.81
2022-09-22T12:17:19.987Z,20.28
2022-09-22T12:22:53.917Z,20.54
2022-09-22T12:27:58.701Z,20.41
2022-09-22T12:33:00.757Z,20.14
2022-09-22T12:38:02.995Z,19.97
2022-09-22T12:43:06.114Z,19.95
2022-09-22T12:48:23.192Z,19.99
2022-09-22T12:53:29.214Z,19.87
2022-09-22T12:58:31.052Z,20.04
2022-09-22T13:03:32.802Z,20.20
2022-09-22T13:08:35.202Z,20.14
2022-09-22T13:13:39.945Z,19.95
2022-09-22T13:18:57.211Z,19.76
2022-09-22T13:24:01.675Z,19.66
2022-09-22T13:29:20.725Z,19.79
2022-09-22T13:34:31.228Z,20.16
2022-09-22T13:39:35.308Z,20.20
2022-09-22T13:44:40.190Z,19.99
2022-09-22T13:49:55.052Z,19.95
2022-09-22T13:55:09.210Z,20.09
2022-09-22T14:01:08.634Z,20.20
2022-09-22T14:06:09.588Z,20.39
2022-09-22T14:11:20.938Z,20.50
2022-09-22T14:16:30.622Z,20.53
2022-09-22T14:21:40.727Z,20.38
2022-09-22T14:26:58.983Z,20.24
2022-09-22T14:32:38.816Z,20.20
2022-09-22T14:37:45.521Z,20.09
2022-09-22T14:43:10.171Z,20.18
2022-09-22T14:48:11.980Z,20.22
2022-09-22T14:53:33.958Z,20.15
2022-09-22T14:58:43.632Z,19.94
2022-09-22T15:03:54.882Z,19.75
2022-09-22T15:08:56.531Z,19.53
2022-09-22T15:13:58.348Z,19.38
2022-09-22T15:19:00.475Z,19.35
2022-09-22T15:24:04.711Z,19.33
2022-09-22T15:29:06.547Z,19.27
2022-09-22T15:34:10.029Z,19.15
2022-09-22T15:39:21.634Z,19.03
2022-09-22T15:44:24.007Z,18.98
2022-09-22T15:49:27.613Z,18.88
2022-09-22T15:54:29.676Z,18.84
2022-09-22T15:59:33.542Z,18.73
2022-09-22T16:04:35.348Z,18.58
2022-09-22T16:09:37.203Z,18.45
2022-09-22T16:14:42.558Z,18.34
2022-09-22T16:19:44.367Z,18.28
2022-09-22T16:24:46.280Z,18.24
2022-09-22T16:29:48.748Z,18.19
2022-09-22T16:34:50.647Z,18.15
2022-09-22T16:39:52.476Z,17.99
2022-09-22T16:44:54.275Z,17.82
2022-09-22T16:49:56.090Z,17.62
2022-09-22T16:54:59.838Z,17.50
2022-09-22T17:00:02.163Z,17.38
2022-09-22T17:05:04.203Z,17.18
2022-09-22T17:10:07.058Z,16.92
2022-09-22T17:15:12.195Z,16.76
2022-09-22T17:20:14.141Z,16.62
2022-09-22T17:25:16.091Z,16.45
2022-09-22T17:30:17.949Z,16.23
2022-09-22T17:35:19.776Z,16.09
2022-09-22T17:40:21.706Z,15.95
2022-09-22T17:45:23.524Z,15.75
2022-09-22T17:50:43.582Z,15.55
2022-09-22T17:55:45.349Z,15.53
2022-09-22T18:00:47.716Z,15.44
2022-09-22T18:05:53.716Z,15.32
2022-09-22T18:10:55.899Z,15.13
2022-09-22T18:16:20.127Z,15.06
2022-09-22T18:21:22.160Z,14.93
2022-09-22T18:26:24.804Z,14.85
2022-09-22T18:31:27.300Z,14.85
2022-09-22T18:36:29.490Z,14.82
2022-09-22T18:41:32.716Z,14.55
2022-09-22T18:46:35.129Z,14.51
2022-09-22T18:51:39.568Z,14.38
2022-09-22T18:56:44.524Z,14.32
2022-09-22T19:01:49.649Z,14.22
2022-09-22T19:07:14.302Z,14.00
2022-09-22T19:12:16.262Z,13.81
2022-09-22T19:17:20.135Z,13.78
2022-09-22T19:22:23.639Z,13.81
2022-09-22T19:27:26.031Z,13.84
2022-09-22T19:32:28.364Z,13.80
2022-09-22T19:37:30.702Z,13.65
2022-09-22T19:42:35.876Z,13.53
2022-09-22T19:47:40.115Z,13.54
2022-09-22T19:52:42.295Z,13.59
2022-09-22T19:57:44.373Z,13.54
2022-09-22T20:02:46.406Z,13.46
2022-09-22T20:07:49.676Z,13.35
2022-09-22T20:12:54.238Z,13.19
2022-09-22T20:17:56.021Z,13.04
2022-09-22T20:23:02.538Z,12.88
2022-09-22T20:28:05.261Z,12.89
2022-09-22T20:33:17.568Z,12.79
2022-09-22T20:38:19.717Z,12.65
2022-09-22T20:43:21.530Z,12.51
2022-09-22T20:48:24.724Z,12.56
2022-09-22T20:53:27.336Z,12.68
2022-09-22T20:58:32.733Z,12.72
2022-09-22T21:03:35.414Z,12.77
2022-09-22T21:08:57.943Z,12.86
2022-09-22T21:14:05.707Z,12.75
2022-09-22T21:19:08.303Z,12.53
2022-09-22T21:24:11.127Z,12.42
2022-09-22T21:29:12.925Z,12.25
2022-09-22T21:34:14.821Z,12.13
2022-09-22T21:39:16.690Z,12.13
2022-09-22T21:44:18.506Z,12.13
2022-09-22T21:49:20.645Z,12.14
2022-09-22T21:54:23.234Z,12.08
2022-09-22T21:59:25.117Z,12.03
2022-09-22T22:04:27.011Z,11.98
2022-09-22T22:09:28.908Z,11.97
2022-09-22T22:14:33.545Z,11.95
2022-09-22T22:19:35.341Z,11.93
2022-09-22T22:24:40.914Z,11.88
2022-09-22T22:29:42.931Z,11.79
2022-09-22T22:34:44.715Z,11.79
2022-09-22T22:39:46.584Z,11.79
2022-09-22T22:44:48.431Z,11.70
2022-09-22T22:49:51.521Z,11.52
2022-09-22T22:54:53.736Z,11.43
2022-09-22T22:59:57.177Z,11.31
2022-09-22T23:05:01.169Z,11.27
2022-09-22T23:10:08.871Z,11.27
2022-09-22T23:15:11.047Z,11.11
2022-09-22T23:20:12.846Z,11.07
2022-09-22T23:25:14.836Z,11.03
2022-09-22T23:30:17.091Z,11.03
2022-09-22T23:35:18.977Z,10.98
2022-09-22T23:40:21.865Z,10.94
2022-09-22T23:45:23.662Z,10.81
2022-09-22T23:50:25.964Z,10.73
2022-09-22T23:55:28.123Z,10.73
